createdAt,value
2018-05-08T00:01:13.824Z,20.00
2018-05-08T00:06:17.079Z,19.90
2018-05-08T00:11:19.580Z,19.90
2018-05-08T00:16:22.080Z,19.90
2018-05-08T00:21:24.581Z,19.80
2018-05-08T00:26:27.073Z,19.80
2018-05-08T00:31:29.564Z,19.80
2018-05-08T00:36:32.054Z,19.80
2018-05-08T00:41:34.532Z,19.50
2018-05-08T00:46:37.005Z,19.70
2018-05-08T00:51:39.491Z,19.70
2018-05-08T00:56:42.013Z,19.60
2018-05-08T01:01:44.510Z,19.60
2018-05-08T01:06:47.023Z,19.60
2018-05-08T01:11:49.527Z,19.50
2018-05-08T01:16:52.013Z,19.40
2018-05-08T01:21:55.232Z,19.50
2018-05-08T01:26:57.727Z,19.60
2018-05-08T01:32:00.213Z,19.20
2018-05-08T01:37:02.681Z,19.40
2018-05-08T01:42:05.228Z,19.30
2018-05-08T01:47:08.475Z,19.30
2018-05-08T01:52:10.966Z,19.20
2018-05-08T01:57:13.431Z,19.30
2018-05-08T02:02:16.668Z,19.30
2018-05-08T02:07:19.153Z,19.20
2018-05-08T02:12:21.633Z,19.10
2018-05-08T02:17:24.876Z,19.00
2018-05-08T02:22:27.368Z,19.00
2018-05-08T02:27:29.848Z,19.00
2018-05-08T02:32:32.328Z,19.00
2018-05-08T02:37:35.572Z,18.70
2018-05-08T02:42:38.060Z,19.00
2018-05-08T02:47:40.541Z,18.90
2018-05-08T02:52:43.015Z,18.80
2018-05-08T02:57:46.263Z,18.80
2018-05-08T03:02:48.748Z,18.80
2018-05-08T03:07:51.233Z,19.00
2018-05-08T03:12:53.708Z,18.70
2018-05-08T03:17:56.969Z,18.90
2018-05-08T03:22:59.448Z,18.60
2018-05-08T03:28:02.005Z,18.70
2018-05-08T03:33:05.240Z,18.70
2018-05-08T03:38:07.719Z,18.70
2018-05-08T03:43:10.980Z,18.60
2018-05-08T03:48:13.465Z,18.60
2018-05-08T03:53:15.939Z,18.90
2018-05-08T03:58:18.418Z,18.50
2018-05-08T04:03:33.692Z,18.40
2018-05-08T04:08:36.183Z,18.40
2018-05-08T04:13:38.661Z,18.40
2018-05-08T04:18:41.140Z,18.40
2018-05-08T04:23:43.612Z,18.30
2018-05-08T04:28:46.135Z,18.30
2018-05-08T04:33:48.612Z,18.30
2018-05-08T04:38:51.087Z,18.10
2018-05-08T04:43:53.578Z,18.30
2018-05-08T04:48:56.162Z,18.20
2018-05-08T04:53:59.409Z,18.10
2018-05-08T04:59:01.893Z,18.20
2018-05-08T05:04:04.404Z,18.20
2018-05-08T05:09:06.922Z,18.10
2018-05-08T05:14:09.452Z,18.10
2018-05-08T05:19:13.699Z,18.00
2018-05-08T05:24:16.935Z,18.20
2018-05-08T05:29:19.423Z,18.30
2018-05-08T05:34:21.913Z,18.20
2018-05-08T05:39:24.379Z,18.20
2018-05-08T05:44:26.864Z,18.30
2018-05-08T05:49:29.343Z,18.30
2018-05-08T05:54:31.820Z,18.30
2018-05-08T05:59:35.069Z,18.40
2018-05-08T06:04:37.544Z,18.30
2018-05-08T06:09:40.024Z,18.40
2018-05-08T06:14:43.268Z,18.60
2018-05-08T06:19:45.743Z,18.10
2018-05-08T06:24:49.792Z,19.00
2018-05-08T06:29:53.037Z,18.80
2018-05-08T06:34:55.517Z,18.90
2018-05-08T06:39:58.014Z,18.90
2018-05-08T06:45:01.241Z,19.00
2018-05-08T06:50:03.806Z,19.10
2018-05-08T06:55:06.285Z,19.40
2018-05-08T07:00:08.764Z,19.10
2018-05-08T07:05:11.406Z,19.20
2018-05-08T07:10:13.872Z,19.40
2018-05-08T07:15:16.432Z,19.40
2018-05-08T07:20:18.921Z,19.50
2018-05-08T07:25:22.457Z,19.60
2018-05-08T07:30:24.945Z,19.50
2018-05-08T07:35:28.184Z,19.80
2018-05-08T07:40:30.659Z,19.60
2018-05-08T07:45:34.011Z,19.80
2018-05-08T07:50:36.389Z,20.00
2018-05-08T07:55:38.863Z,19.90
2018-05-08T08:00:42.117Z,20.20
2018-05-08T08:05:44.602Z,20.20
2018-05-08T08:10:47.076Z,20.30
2018-05-08T08:15:50.329Z,20.50
2018-05-08T08:20:52.807Z,20.50
2018-05-08T08:25:56.052Z,20.60
2018-05-08T08:30:58.528Z,20.60
2018-05-08T08:36:01.008Z,20.70
2018-05-08T08:41:04.255Z,20.80
2018-05-08T08:46:06.737Z,20.80
2018-05-08T08:51:09.211Z,20.90
2018-05-08T08:56:12.473Z,21.00
2018-05-08T09:01:14.975Z,21.00
2018-05-08T09:06:17.468Z,21.10
2018-05-08T09:11:20.023Z,21.20
2018-05-08T09:16:22.448Z,21.20
2018-05-08T09:21:24.940Z,21.40
2018-05-08T09:26:28.199Z,21.50
2018-05-08T09:31:30.692Z,21.50
2018-05-08T09:36:33.220Z,21.70
2018-05-08T09:41:35.768Z,21.70
2018-05-08T09:46:38.288Z,21.80
2018-05-08T09:51:40.772Z,22.00
2018-05-08T09:56:43.275Z,22.00
2018-05-08T10:01:45.772Z,22.10
2018-05-08T10:06:48.359Z,22.20
2018-05-08T10:11:50.759Z,22.30
2018-05-08T10:16:54.016Z,22.50
2018-05-08T10:21:56.512Z,22.50
2018-05-08T10:26:59.007Z,22.60
2018-05-08T10:32:01.513Z,22.70
2018-05-08T10:37:04.791Z,22.80
2018-05-08T10:42:07.268Z,22.80
2018-05-08T10:47:10.519Z,23.00
2018-05-08T10:52:13.019Z,23.00
2018-05-08T10:57:15.492Z,23.00
2018-05-08T11:02:18.747Z,23.40
2018-05-08T11:07:21.240Z,23.40
2018-05-08T11:12:23.762Z,23.50
2018-05-08T11:17:26.229Z,23.50
2018-05-08T11:22:28.732Z,23.60
2018-05-08T11:27:31.216Z,23.60
2018-05-08T11:32:33.703Z,23.60
2018-05-08T11:37:36.940Z,23.70
2018-05-08T11:42:39.432Z,23.70
2018-05-08T11:47:41.919Z,23.80
2018-05-08T11:52:45.207Z,24.10
2018-05-08T11:57:47.692Z,24.10
2018-05-08T12:02:50.163Z,24.10
2018-05-08T12:07:52.675Z,24.20
2018-05-08T12:12:55.160Z,24.20
2018-05-08T12:17:57.689Z,24.20
2018-05-08T12:23:00.229Z,24.10
2018-05-08T12:28:02.708Z,24.20
2018-05-08T12:33:05.968Z,24.10
2018-05-08T12:38:08.461Z,24.20
2018-05-08T12:43:10.949Z,24.30
2018-05-08T12:48:14.216Z,24.40
2018-05-08T12:53:17.460Z,24.30
2018-05-08T12:58:19.957Z,24.30
2018-05-08T13:03:22.445Z,24.30
2018-05-08T13:08:24.924Z,24.40
2018-05-08T13:13:27.421Z,24.30
2018-05-08T13:18:29.919Z,24.40
2018-05-08T13:23:32.411Z,24.40
2018-05-08T13:28:34.905Z,24.40
2018-05-08T13:33:37.398Z,24.30
2018-05-08T13:38:39.897Z,24.40
2018-05-08T13:43:42.383Z,24.50
2018-05-08T13:48:44.865Z,24.50
2018-05-08T13:53:47.347Z,24.60
2018-05-08T13:58:50.606Z,24.60
2018-05-08T14:03:53.292Z,24.50
2018-05-08T14:08:55.783Z,24.60
2018-05-08T14:13:58.260Z,24.60
2018-05-08T14:19:00.758Z,24.50
2018-05-08T14:24:03.247Z,24.50
2018-05-08T14:29:05.724Z,24.60
2018-05-08T14:34:08.988Z,24.70
2018-05-08T14:39:11.484Z,24.70
2018-05-08T14:44:13.975Z,24.70
2018-05-08T14:49:16.471Z,24.80
2018-05-08T14:54:18.931Z,24.80
2018-05-08T14:59:21.446Z,24.80
2018-05-08T15:04:23.954Z,24.80
2018-05-08T15:09:26.445Z,24.80
2018-05-08T15:14:28.940Z,24.80
2018-05-08T15:19:32.041Z,24.70
2018-05-08T15:24:34.522Z,24.80
2018-05-08T15:29:37.011Z,24.80
2018-05-08T15:34:39.586Z,24.80
2018-05-08T15:39:42.012Z,24.80
2018-05-08T15:44:44.543Z,24.80
2018-05-08T15:49:47.810Z,24.90
2018-05-08T15:54:50.304Z,24.80
2018-05-08T15:59:52.789Z,24.90
2018-05-08T16:04:56.927Z,24.90
2018-05-08T16:09:59.429Z,24.90
2018-05-08T16:15:02.696Z,24.90
2018-05-08T16:20:05.952Z,24.90
2018-05-08T16:25:08.440Z,24.80
2018-05-08T16:30:11.070Z,24.90
2018-05-08T16:35:14.352Z,24.90
2018-05-08T16:40:17.092Z,24.90
2018-05-08T16:45:19.579Z,24.90
2018-05-08T16:50:22.072Z,24.90
2018-05-08T16:55:24.565Z,24.90
2018-05-08T17:00:27.068Z,24.90
2018-05-08T17:05:29.575Z,24.90
2018-05-08T17:10:32.880Z,24.90
2018-05-08T17:15:35.299Z,24.90
2018-05-08T17:20:37.792Z,24.90
2018-05-08T17:25:40.320Z,24.90
2018-05-08T17:30:42.780Z,25.00
2018-05-08T17:35:45.324Z,25.00
2018-05-08T17:40:47.825Z,25.00
2018-05-08T17:45:50.349Z,25.00
2018-05-08T17:50:52.809Z,25.00
2018-05-08T17:55:55.317Z,25.00
2018-05-08T18:00:57.871Z,25.00
2018-05-08T18:06:00.360Z,25.00
2018-05-08T18:11:02.857Z,25.00
2018-05-08T18:16:05.335Z,25.00
2018-05-08T18:21:07.858Z,25.00
2018-05-08T18:26:10.517Z,25.00
2018-05-08T18:31:13.013Z,24.90
2018-05-08T18:36:15.543Z,24.90
2018-05-08T18:41:18.100Z,24.80
2018-05-08T18:46:20.597Z,24.80
2018-05-08T18:51:23.097Z,24.80
2018-05-08T18:56:25.617Z,24.70
2018-05-08T19:01:28.128Z,24.60
2018-05-08T19:06:30.616Z,24.60
2018-05-08T19:11:38.808Z,24.50
2018-05-08T19:16:41.292Z,24.50
2018-05-08T19:21:43.775Z,24.40
2018-05-08T19:26:46.252Z,24.40
2018-05-08T19:31:49.520Z,24.20
2018-05-08T19:36:57.868Z,24.20
2018-05-08T19:42:00.352Z,24.10
2018-05-08T19:47:02.933Z,24.00
2018-05-08T19:52:05.433Z,23.90
2018-05-08T19:57:07.989Z,23.90
2018-05-08T20:02:10.537Z,23.80
2018-05-08T20:07:13.021Z,23.70
2018-05-08T20:12:16.297Z,23.50
2018-05-08T20:17:18.792Z,23.50
2018-05-08T20:22:21.281Z,23.40
2018-05-08T20:27:23.782Z,23.30
2018-05-08T20:32:26.266Z,23.20
2018-05-08T20:37:28.753Z,23.10
2018-05-08T20:42:31.227Z,23.00
2018-05-08T20:47:34.487Z,22.90
2018-05-08T20:52:36.977Z,22.80
2018-05-08T20:57:39.468Z,22.80
2018-05-08T21:02:41.964Z,22.70
2018-05-08T21:07:44.466Z,22.70
2018-05-08T21:12:46.948Z,22.60
2018-05-08T21:17:49.444Z,22.50
2018-05-08T21:22:51.942Z,22.50
2018-05-08T21:28:00.034Z,22.50
2018-05-08T21:33:02.528Z,22.30
2018-05-08T21:38:05.104Z,22.40
2018-05-08T21:43:08.367Z,22.30
2018-05-08T21:48:10.852Z,22.20
2018-05-08T21:53:13.351Z,22.20
2018-05-08T21:58:15.844Z,22.20
2018-05-08T22:03:18.341Z,22.10
2018-05-08T22:08:20.827Z,22.10
2018-05-08T22:13:23.302Z,22.00
2018-05-08T22:18:25.824Z,22.00
2018-05-08T22:23:28.329Z,22.00
2018-05-08T22:28:30.825Z,21.90
2018-05-08T22:33:33.322Z,21.90
2018-05-08T22:38:35.816Z,21.90
2018-05-08T22:43:38.308Z,21.80
2018-05-08T22:48:41.123Z,21.80
2018-05-08T22:53:44.371Z,21.70
2018-05-08T22:58:46.871Z,21.70
2018-05-08T23:03:49.381Z,21.70
2018-05-08T23:08:51.962Z,21.70
2018-05-08T23:13:54.381Z,21.60
2018-05-08T23:18:56.886Z,21.60
2018-05-08T23:23:59.376Z,21.60
2018-05-08T23:29:01.868Z,21.50
2018-05-08T23:34:04.361Z,21.50
2018-05-08T23:39:06.854Z,21.50
2018-05-08T23:44:09.352Z,21.40
2018-05-08T23:49:11.848Z,21.40
2018-05-08T23:54:14.349Z,21.20
2018-05-08T23:59:17.605Z,21.30
